Flight Track Log - Related Links

Times and Time Zones

All times are in EST time to prevent confusion due to time zone crossing. See the CES568 flight status page for this flight to view local times or setup timezone preferences in your user account.

Time Position Orientation Groundspeed Altitude Reporting Facility
EST Latitude Longitude Course Direction KTS MPH feet Rate Location/Type
Mon 05:26:00 AM 10.2366 108.7213 28° Northeast  Level Estimated
Mon 05:27:00 AM 10.3487 108.7824 28° Northeast  Level Estimated
Mon 05:28:00 AM 10.4608 108.8436 28° Northeast  Level Estimated
Mon 05:29:00 AM 10.5729 108.9048 28° Northeast  Level Estimated
Mon 05:30:00 AM 10.6849 108.9661 28° Northeast  Level Estimated
Mon 05:31:00 AM 10.7970 109.0274 28° Northeast  Level Estimated
Mon 05:32:00 AM 10.9090 109.0888 28° Northeast  Level Estimated
Mon 05:33:00 AM 11.0211 109.1502 28° Northeast  Level Estimated
Mon 05:34:00 AM 11.1331 109.2116 28° Northeast  Level Estimated
Mon 05:35:00 AM 11.2451 109.2731 28° Northeast  Level Estimated
Mon 05:36:00 AM 11.3570 109.3347 28° Northeast  Level Estimated
Mon 05:37:00 AM 11.4690 109.3963 28° Northeast  Level Estimated
Mon 05:38:00 AM 11.5810 109.4579 28° Northeast  Level Estimated
Mon 05:39:00 AM 11.6929 109.5197 28° Northeast  Level Estimated
Mon 05:40:00 AM 11.8049 109.5814 28° Northeast  Level Estimated
Mon 05:41:00 AM 11.9168 109.6432 28° Northeast  Level Estimated
Mon 05:42:00 AM 12.0287 109.7050 28° Northeast  Level Estimated
Mon 05:43:00 AM 12.1406 109.7670 28° Northeast  Level Estimated
Mon 05:44:00 AM 12.2525 109.8289 28° Northeast  Level Estimated
Mon 05:45:00 AM 12.3643 109.8909 28° Northeast  Level Estimated
Mon 05:46:00 AM 12.4762 109.9530 28° Northeast  Level Estimated
Mon 05:47:00 AM 12.5880 110.0151 28° Northeast  Level Estimated
Mon 05:48:00 AM 12.6998 110.0772 28° Northeast  Level Estimated
Mon 05:49:00 AM 12.8117 110.1395 28° Northeast  Level Estimated
Mon 05:50:00 AM 12.9235 110.2018 28° Northeast  Level Estimated
Mon 05:51:00 AM 13.0352 110.2641 29° Northeast  Level Estimated
Mon 05:52:00 AM 13.1470 110.3265 29° Northeast  Level Estimated
Mon 05:53:00 AM 13.2587 110.3889 29° Northeast  Level Estimated
Mon 05:54:00 AM 13.3705 110.4514 29° Northeast  Level Estimated
Mon 05:55:00 AM 13.4822 110.5140 29° Northeast  Level Estimated
Mon 05:56:00 AM 13.5939 110.5766 29° Northeast  Level Estimated
Mon 05:57:00 AM 13.7056 110.6393 29° Northeast  Level Estimated
Mon 05:58:00 AM 13.8173 110.7020 29° Northeast  Level Estimated
Mon 05:59:00 AM 13.9289 110.7648 29° Northeast  Level Estimated
Mon 06:00:00 AM 14.0406 110.8277 29° Northeast  Level Estimated
Mon 06:01:00 AM 14.1522 110.8906 29° Northeast  Level Estimated
Mon 06:02:00 AM 14.2638 110.9536 29° Northeast  Level Estimated
Mon 06:03:00 AM 14.3754 111.0166 29° Northeast  Level Estimated
Mon 06:04:00 AM 14.4870 111.0797 29° Northeast  Level Estimated
Mon 06:05:00 AM 14.5985 111.1429 29° Northeast  Level Estimated
Mon 06:06:00 AM 14.7101 111.2061 29° Northeast  Level Estimated
Mon 06:07:00 AM 14.8216 111.2694 29° Northeast  Level Estimated
Mon 06:08:00 AM 14.9331 111.3328 29° Northeast  Level Estimated
Mon 06:09:00 AM 15.0446 111.3962 29° Northeast  Level Estimated
Mon 06:10:00 AM 15.1561 111.4597 29° Northeast  Level Estimated
Mon 06:11:00 AM 15.2675 111.5233 29° Northeast  Level Estimated
Mon 06:12:00 AM 15.3790 111.5869 29° Northeast  Level Estimated
Mon 06:13:00 AM 15.4904 111.6506 29° Northeast  Level Estimated
Mon 06:14:00 AM 15.6018 111.7144 29° Northeast  Level Estimated
Mon 06:15:00 AM 15.7132 111.7782 29° Northeast  Level Estimated
Mon 06:16:00 AM 15.8245 111.8421 29° Northeast  Level Estimated
Mon 06:17:00 AM 15.9359 111.9061 29° Northeast  Level Estimated
Mon 06:18:00 AM 16.0472 111.9702 29° Northeast  Level Estimated
Mon 06:19:00 AM 16.1585 112.0343 29° Northeast  Level Estimated
Mon 06:20:00 AM 16.2698 112.0985 29° Northeast  Level Estimated
Mon 06:21:00 AM 16.3811 112.1627 29° Northeast  Level Estimated
Mon 06:22:00 AM 16.4923 112.2271 29° Northeast  Level Estimated
Mon 06:23:00 AM 16.6035 112.2915 29° Northeast  Level Estimated
Mon 06:24:00 AM 16.7147 112.3560 29° Northeast  Level Estimated
Mon 06:25:00 AM 16.8259 112.4205 29° Northeast  Level Estimated
Mon 06:26:00 AM 16.9371 112.4852 29° Northeast  Level Estimated
Mon 06:27:00 AM 17.0483 112.5499 29° Northeast  Level Estimated
Mon 06:28:00 AM 17.1594 112.6147 29° Northeast  Level Estimated
Mon 06:29:00 AM 17.2705 112.6795 29° Northeast  Level Estimated
Mon 06:30:00 AM 17.3816 112.7445 29° Northeast  Level Estimated
Mon 06:31:00 AM 17.4926 112.8095 29° Northeast  Level Estimated
Mon 06:32:00 AM 17.6037 112.8746 29° Northeast  Level Estimated
Mon 06:33:00 AM 17.7147 112.9398 29° Northeast  Level Estimated
Mon 06:34:00 AM 17.8257 113.0051 29° Northeast  Level Estimated
Mon 06:35:00 AM 17.9367 113.0704 29° Northeast  Level Estimated
Mon 06:36:00 AM 18.0476 113.1359 29° Northeast  Level Estimated
Mon 06:37:00 AM 18.1586 113.2014 29° Northeast  Level Estimated
Mon 06:38:00 AM 18.2695 113.2670 29° Northeast  Level Estimated
Mon 06:39:00 AM 18.3804 113.3327 29° Northeast  Level Estimated
Mon 06:40:00 AM 18.4912 113.3984 29° Northeast  Level Estimated
Mon 06:41:00 AM 18.6021 113.4643 29° Northeast  Level Estimated
Mon 06:42:00 AM 18.7129 113.5302 29° Northeast  Level Estimated
Mon 06:43:00 AM 18.8237 113.5962 29° Northeast  Level Estimated
Mon 06:44:00 AM 18.9345 113.6623 29° Northeast  Level Estimated
Mon 06:45:00 AM 19.0452 113.7285 29° Northeast  Level Estimated
Mon 06:46:00 AM 19.1560 113.7948 29° Northeast  Level Estimated
Mon 06:47:00 AM 19.2667 113.8612 30° Northeast  Level Estimated
Mon 06:48:00 AM 19.3774 113.9277 30° Northeast  Level Estimated
Mon 06:49:00 AM 19.4880 113.9942 30° Northeast  Level Estimated
Mon 06:50:00 AM 19.5987 114.0609 30° Northeast  Level Estimated
Mon 06:51:00 AM 19.7093 114.1276 30° Northeast  Level Estimated
Mon 06:52:00 AM 19.8199 114.1944 30° Northeast  Level Estimated
Mon 06:53:00 AM 19.9304 114.2613 30° Northeast  Level Estimated
Mon 06:54:00 AM 20.0409 114.3284 30° Northeast  Level Estimated
Mon 06:55:00 AM 20.1514 114.3955 30° Northeast  Level Estimated
Mon 06:56:00 AM 20.2619 114.4627 30° Northeast  Level Estimated
Mon 06:57:00 AM 20.3724 114.5300 30° Northeast  Level Estimated
Mon 06:58:00 AM 20.4828 114.5974 30° Northeast  Level Estimated
Mon 06:59:00 AM 20.5932 114.6649 30° Northeast  Level Estimated
Mon 07:00:00 AM 20.7036 114.7325 30° Northeast  Level Estimated
Mon 07:01:00 AM 20.8140 114.8001 30° Northeast  Level Estimated
Mon 07:02:00 AM 20.9243 114.8679 30° Northeast  Level Estimated
Mon 07:03:00 AM 21.0346 114.9358 30° Northeast  Level Estimated
Mon 07:04:00 AM 21.1449 115.0038 30° Northeast  Level Estimated
Mon 07:05:00 AM 21.2551 115.0719 30° Northeast  Level Estimated
Mon 07:06:00 AM 21.3653 115.1401 30° Northeast  Level Estimated
Mon 07:07:00 AM 21.4755 115.2084 30° Northeast  Level Estimated
Mon 07:08:00 AM 21.5857 115.2768 30° Northeast  Level Estimated
Mon 07:09:00 AM 21.6958 115.3453 30° Northeast  Level Estimated
Mon 07:10:00 AM 21.8059 115.4139 30° Northeast  Level Estimated
Mon 07:11:00 AM 21.9160 115.4826 30° Northeast  Level Estimated
Mon 07:12:00 AM 22.0260 115.5514 30° Northeast  Level Estimated
Mon 07:13:00 AM 22.1361 115.6204 30° Northeast  Level Estimated
Mon 07:14:00 AM 22.2460 115.6894 30° Northeast  Level Estimated
Mon 07:15:00 AM 22.3560 115.7586 30° Northeast  Level Estimated
Mon 07:16:00 AM 22.4659 115.8278 30° Northeast  Level Estimated
Mon 07:17:00 AM 22.5758 115.8972 30° Northeast  Level Estimated
Mon 07:18:00 AM 22.6857 115.9666 30° Northeast  Level Estimated
Mon 07:19:00 AM 22.7955 116.0362 30° Northeast  Level Estimated
Mon 07:20:00 AM 22.9054 116.1059 30° Northeast  Level Estimated
Mon 07:21:00 AM 23.0151 116.1757 30° Northeast  Level Estimated
Mon 07:22:00 AM 23.1249 116.2457 30° Northeast  Level Estimated
Mon 07:23:00 AM 23.2346 116.3157 30° Northeast  Level Estimated
Mon 07:24:00 AM 23.3443 116.3858 30° Northeast  Level Estimated
Mon 07:25:00 AM 23.4540 116.4561 30° Northeast  Level Estimated
Mon 07:26:00 AM 23.5636 116.5265 30° Northeast  Level Estimated
Mon 07:27:00 AM 23.6732 116.5970 31° Northeast  Level Estimated
Mon 07:28:00 AM 23.7827 116.6676 31° Northeast  Level Estimated
Mon 07:29:00 AM 23.8923 116.7384 31° Northeast  Level Estimated
Mon 07:30:00 AM 24.0018 116.8092 31° Northeast  Level Estimated
Mon 07:31:00 AM 24.1112 116.8802 31° Northeast  Level Estimated
Mon 07:32:00 AM 24.2207 116.9513 31° Northeast  Level Estimated
Mon 07:33:00 AM 24.3301 117.0225 31° Northeast  Level Estimated
Mon 07:34:00 AM 24.4394 117.0939 31° Northeast  Level Estimated
Mon 07:35:00 AM 24.5488 117.1654 31° Northeast  Level Estimated
Mon 07:36:00 AM 24.6581 117.2370 31° Northeast  Level Estimated
Mon 07:37:00 AM 24.7673 117.3087 31° Northeast  Level Estimated
Mon 07:38:00 AM 24.8766 117.3805 31° Northeast  Level Estimated
Mon 07:39:00 AM 24.9858 117.4525 31° Northeast  Level Estimated
Mon 07:40:00 AM 25.0949 117.5246 31° Northeast  Level Estimated
Mon 07:41:00 AM 25.2041 117.5968 31° Northeast  Level Estimated
Mon 07:42:00 AM 25.3132 117.6692 31° Northeast  Level Estimated
Mon 07:43:00 AM 25.4222 117.7417 31° Northeast  Level Estimated
Mon 07:44:00 AM 25.5312 117.8143 31° Northeast  Level Estimated
Mon 07:45:00 AM 25.6402 117.8871 31° Northeast  Level Estimated
Mon 07:46:00 AM 25.7492 117.9600 31° Northeast  Level Estimated
Mon 07:47:00 AM 25.8581 118.0330 31° Northeast  Level Estimated
Mon 07:48:00 AM 25.9670 118.1061 31° Northeast  Level Estimated
Mon 07:49:00 AM 26.0758 118.1794 31° Northeast  Level Estimated
Mon 07:50:00 AM 26.1846 118.2529 31° Northeast  Level Estimated
Mon 07:51:00 AM 26.2934 118.3264 31° Northeast  Level Estimated
Mon 07:52:00 AM 26.4021 118.4001 31° Northeast  Level Estimated
Mon 07:53:00 AM 26.5108 118.4740 31° Northeast  Level Estimated
Mon 07:54:00 AM 26.6194 118.5480 31° Northeast  Level Estimated
Mon 07:55:00 AM 26.7281 118.6221 31° Northeast  Level Estimated
Mon 07:56:00 AM 26.8366 118.6964 31° Northeast  Level Estimated
Mon 07:57:00 AM 26.9452 118.7708 31° Northeast  Level Estimated
Mon 07:58:00 AM 27.0537 118.8453 31° Northeast  Level Estimated
Mon 07:59:00 AM 27.1621 118.9200 31° Northeast  Level Estimated
Mon 08:00:00 AM 27.2705 118.9949 32° Northeast  Level Estimated
Mon 08:01:00 AM 27.3789 119.0698 32° Northeast  Level Estimated
Mon 08:02:00 AM 27.4873 119.1450 32° Northeast  Level Estimated
Mon 08:03:00 AM 27.5956 119.2203 32° Northeast  Level Estimated
Mon 08:04:00 AM 27.7038 119.2957 32° Northeast  Level Estimated
Mon 08:05:00 AM 27.8120 119.3713 32° Northeast  Level Estimated
Mon 08:06:00 AM 27.9202 119.4470 32° Northeast  Level Estimated
Mon 08:07:00 AM 28.0283 119.5229 32° Northeast  Level Estimated
Mon 08:08:00 AM 28.1364 119.5989 32° Northeast  Level Estimated
Mon 08:09:00 AM 28.2445 119.6751 32° Northeast  Level Estimated
Mon 08:10:00 AM 28.3525 119.7515 32° Northeast  Level Estimated
Mon 08:11:00 AM 28.4604 119.8280 32° Northeast  Level Estimated
Mon 08:12:00 AM 28.5684 119.9046 32° Northeast  Level Estimated
Mon 08:13:00 AM 28.6763 119.9815 32° Northeast  Level Estimated
Mon 08:14:00 AM 28.7841 120.0584 32° Northeast  Level Estimated
Mon 08:15:00 AM 28.8919 120.1356 32° Northeast  Level Estimated
Mon 08:16:00 AM 28.9996 120.2128 32° Northeast  Level Estimated
Mon 08:17:00 AM 29.1073 120.2903 32° Northeast  Level Estimated
Mon 08:18:00 AM 29.2150 120.3679 32° Northeast  Level Estimated
Mon 08:19:00 AM 29.3226 120.4457 32° Northeast  Level Estimated
Mon 08:20:00 AM 29.4302 120.5236 32° Northeast  Level Estimated
Mon 08:21:00 AM 29.5377 120.6017 32° Northeast  Level Estimated
Mon 08:22:00 AM 29.6452 120.6800 32° Northeast  Level Estimated
Mon 08:23:00 AM 29.7526 120.7585 32° Northeast  Level Estimated
Mon 08:24:00 AM 29.8600 120.8371 32° Northeast  Level Estimated
Mon 08:25:00 AM 29.9673 120.9158 32° Northeast  Level Estimated
Mon 08:26:00 AM 30.0746 120.9948 32° Northeast  Level Estimated
Mon 08:27:00 AM 30.1818 121.0739 33° Northeast  Level Estimated
Mon 08:28:00 AM 30.2890 121.1532 33° Northeast  Level Estimated
Mon 08:29:00 AM 30.3962 121.2327 33° Northeast  Level Estimated
Mon 08:30:00 AM 30.5033 121.3123 33° Northeast  Level Estimated
Mon 08:31:00 AM 30.6103 121.3922 33° Northeast  Level Estimated
Mon 08:32:00 AM 30.7173 121.4722 33° Northeast  Level Estimated
Mon 08:33:00 AM 30.8243 121.5523 33° Northeast  Level Estimated
Mon 08:34:00 AM 30.9312 121.6327 33° Northeast  Level Estimated
Mon 08:35:00 AM 31.0380 121.7132 33° Northeast  Level Estimated
Mon 08:36:00 AM 31.1428 121.7924 33° Northeast  Level Estimated
Mon 08:37:00 AM 31.1428 121.7924 221° Southwest  Level Estimated
Mon 08:38:00 AM 31.1428 121.7924 221° Southwest  Level Estimated
Mon 08:39:00 AM 31.1428 121.7924 221° Southwest  Level Estimated
Mon 08:40:00 AM 31.1428 121.7924 221° Southwest  Level Estimated
Mon 08:41:00 AM 31.1428 121.7924 221° Southwest  Level Estimated
Mon 08:42:00 AM 31.1428 121.7924 221° Southwest  Level Estimated
Mon 08:43:00 AM 31.1428 121.7924 221° Southwest  Level Estimated
Mon 08:44:00 AM 31.1428 121.7924 221° Southwest  Level Estimated
Mon 08:45:00 AM 31.1428 121.7924 221° Southwest  Level Estimated
Mon 08:46:00 AM 31.1428 121.7924 221° Southwest  Level Estimated
Mon 08:47:00 AM 31.1428 121.7924 221° Southwest  Level Estimated
Mon 08:48:00 AM 31.1428 121.7924 221° Southwest  Level Estimated
Mon 08:49:00 AM 31.1428 121.7924 221° Southwest  Level Estimated
Mon 08:50:00 AM 31.1428 121.7924 221° Southwest  Level Estimated
Mon 08:51:00 AM 31.1428 121.7924 221° Southwest  Level Estimated
Mon 08:52:00 AM 31.1428 121.7924 221° Southwest  Level Estimated

Login

Don't have an account? Register now (free) for customized features, flight alerts, and more!